Time;durP1;ratioP1;P1;durP2;ratioP2;P2;SDS_P1;SDS_P2;PMS_P1;PMS_P2;Temp;Humidity;BMP_temperature;BMP_pressure;BME280_temperature;BME280_humidity;BME280_pressure;Samples;Min_cycle;Max_cycle;Signal;HPM_P1;HPM_P2
2023/03/21 00:05:41;;;;;;;5.65;3.50;;;;;;;10.97;60.75;97887.81;10177937;29;19927;-77
2023/03/21 00:11:03;;;;;;;5.20;3.55;;;;;;;10.83;60.72;97876.41;10166163;29;20052;-77
2023/03/21 00:16:25;;;;;;;5.57;3.47;;;;;;;10.66;61.30;97868.25;10166127;29;20052;-77
2023/03/21 00:22:18;;;;;;;6.17;3.80;;;;;;;10.52;61.91;97882.69;10203187;29;20055;-77
2023/03/21 00:27:39;;;;;;;5.00;3.45;;;;;;;10.41;61.64;97866.53;10181601;29;20287;-77
2023/03/21 00:33:20;;;;;;;6.57;4.00;;;;;;;10.35;62.17;97851.44;10185861;29;20104;-77
2023/03/21 00:38:45;;;;;;;5.45;3.60;;;;;;;10.32;62.32;97845.72;10168577;29;20043;-77
2023/03/21 00:44:06;;;;;;;5.10;3.50;;;;;;;10.36;62.52;97836.19;10194324;29;20043;-77
2023/03/21 00:49:27;;;;;;;4.90;3.63;;;;;;;10.42;62.54;97851.28;10188623;29;20047;-77
2023/03/21 00:55:17;;;;;;;5.05;3.90;;;;;;;10.42;62.50;97834.53;10208400;29;20495;-77
2023/03/21 01:01:09;;;;;;;7.93;4.30;;;;;;;10.41;62.83;97844.22;10199007;29;20048;-77
2023/03/21 01:06:58;;;;;;;6.90;4.20;;;;;;;10.43;62.92;97846.44;10216481;29;20490;-77
2023/03/21 01:12:19;;;;;;;6.95;4.57;;;;;;;10.42;63.14;97826.19;10186881;29;20067;-77
2023/03/21 01:17:40;;;;;;;7.28;4.80;;;;;;;10.35;62.72;97832.66;10199425;29;20078;-77
2023/03/21 01:23:01;;;;;;;7.30;4.93;;;;;;;10.32;63.60;97831.75;10185774;29;20047;-77
2023/03/21 01:28:25;;;;;;;5.65;4.07;;;;;;;10.28;63.07;97825.91;10186527;29;20478;-78
2023/03/21 01:33:46;;;;;;;6.53;4.35;;;;;;;10.27;63.76;97830.03;10199190;29;20055;-78
2023/03/21 01:39:09;;;;;;;7.88;5.30;;;;;;;10.24;63.54;97831.22;10172969;29;20047;-77
2023/03/21 01:44:31;;;;;;;7.72;5.05;;;;;;;10.17;64.31;97822.97;10184255;29;20059;-77
2023/03/21 01:49:57;;;;;;;9.32;4.90;;;;;;;10.17;64.18;97825.78;10197257;29;20501;-77
2023/03/21 01:55:21;;;;;;;8.07;5.10;;;;;;;10.06;64.17;97827.13;10185141;29;20044;-77
2023/03/21 02:01:06;;;;;;;7.95;5.32;;;;;;;9.90;64.41;97826.69;10202875;29;20060;-77
2023/03/21 02:06:37;;;;;;;9.90;5.63;;;;;;;9.84;65.10;97811.56;10197860;29;20478;-77
2023/03/21 02:12:07;;;;;;;9.25;5.57;;;;;;;9.84;65.39;97812.31;10185899;29;20123;-77
2023/03/21 02:18:00;;;;;;;6.50;4.90;;;;;;;9.88;65.28;97814.66;10196266;29;20055;-77
2023/03/21 02:23:59;;;;;;;7.72;4.85;;;;;;;9.88;65.50;97815.41;10197162;29;20459;-77
2023/03/21 02:29:46;;;;;;;11.38;5.68;;;;;;;9.82;65.27;97814.94;10181677;29;20090;-78
2023/03/21 02:35:38;;;;;;;9.82;5.63;;;;;;;9.71;65.47;97812.75;10195508;29;20102;-77
2023/03/21 02:41:16;;;;;;;;;;;;;;;9.59;66.37;97821.00;10208797;29;20048;-77
2023/03/21 02:46:57;;;;;;;9.75;5.18;;;;;;;9.49;66.14;97816.75;10195710;29;20293;-77
2023/03/21 02:52:28;;;;;;;8.15;5.30;;;;;;;9.44;66.09;97816.44;10184388;29;20130;-77
2023/03/21 02:58:03;;;;;;;6.65;4.72;;;;;;;9.34;66.33;97824.06;10188619;29;20047;-77
2023/03/21 03:03:39;;;;;;;8.63;5.80;;;;;;;9.29;66.70;97827.13;10176318;29;20055;-77
2023/03/21 03:09:30;;;;;;;7.55;5.30;;;;;;;9.28;66.38;97826.41;10182470;29;20398;-78
2023/03/21 03:15:04;;;;;;;9.20;4.90;;;;;;;9.26;66.39;97820.66;10191890;29;20059;-77
2023/03/21 03:20:31;;;;;;;7.90;5.07;;;;;;;9.21;66.34;97820.97;10204113;29;20074;-77
2023/03/21 03:26:09;;;;;;;;;;;;;;;9.22;66.90;97830.78;10191208;29;20513;-77
2023/03/21 03:32:07;;;;;;;9.70;5.72;;;;;;;9.32;66.60;97825.97;10207888;29;19953;-77
2023/03/21 03:38:29;;;;;;;6.85;4.60;;;;;;;9.35;66.49;97819.94;10209551;28;20487;-77
2023/03/21 03:43:53;;;;;;;10.65;6.20;;;;;;;9.40;66.68;97821.00;10174896;28;20092;-78
2023/03/21 03:49:23;;;;;;;11.68;5.97;;;;;;;9.46;66.85;97824.22;10175696;29;20055;-77
2023/03/21 03:54:47;;;;;;;7.50;5.35;;;;;;;9.43;66.53;97819.81;10175807;29;20060;-77
2023/03/21 04:00:11;;;;;;;8.03;5.83;;;;;;;9.32;66.94;97820.38;10175621;29;20138;-77
2023/03/21 04:07:06;;;;;;;;;;;;;;;9.21;67.35;97823.75;10184685;29;20060;-77
2023/03/21 04:12:57;;;;;;;9.98;5.30;;;;;;;9.20;67.31;97813.94;10176023;29;20258;-77
2023/03/21 04:19:22;;;;;;;8.52;5.82;;;;;;;9.25;67.14;97822.00;10165285;29;20055;-77
2023/03/21 04:24:43;;;;;;;9.50;6.00;;;;;;;9.26;67.52;97812.31;10154566;29;20059;-77
2023/03/21 04:30:08;;;;;;;9.02;6.00;;;;;;;9.24;67.58;97817.00;10142984;29;20089;-77
2023/03/21 04:35:57;;;;;;;9.63;5.82;;;;;;;9.22;67.36;97811.28;10144773;29;20562;-78
2023/03/21 04:41:23;;;;;;;10.35;5.72;;;;;;;9.20;67.59;97814.66;10156966;29;20144;-77
2023/03/21 04:46:44;;;;;;;10.93;6.32;;;;;;;9.18;67.76;97822.88;10142037;29;20135;-78
2023/03/21 04:52:16;;;;;;;10.52;5.57;;;;;;;9.21;67.70;97827.28;10159173;29;20040;-77
2023/03/21 04:58:05;;;;;;;8.35;5.82;;;;;;;9.25;67.65;97824.78;10173809;29;20479;-77
2023/03/21 05:03:33;;;;;;;10.27;6.43;;;;;;;9.25;67.75;97827.56;10172095;29;20052;-77
2023/03/21 05:08:58;;;;;;;9.38;5.75;;;;;;;9.22;67.78;97828.72;10159069;29;20071;-77
2023/03/21 05:14:48;;;;;;;11.70;6.72;;;;;;;9.22;67.73;97828.00;10164447;29;20048;-77
2023/03/21 05:20:10;;;;;;;9.95;6.07;;;;;;;9.23;67.89;97827.41;10168952;29;20047;-78
2023/03/21 05:26:01;;;;;;;9.98;6.25;;;;;;;9.29;67.72;97824.34;10154712;29;20049;-77
2023/03/21 05:31:32;;;;;;;11.10;6.65;;;;;;;9.45;67.50;97820.69;10146844;29;20463;-77
2023/03/21 05:37:07;;;;;;;9.52;6.10;;;;;;;9.64;66.90;97827.56;10149317;29;20100;-77
2023/03/21 05:42:50;;;;;;;9.25;5.97;;;;;;;9.75;66.79;97827.00;10172872;29;20052;-77
2023/03/21 05:48:15;;;;;;;9.50;6.57;;;;;;;9.98;66.26;97830.06;10161900;29;20134;-77
2023/03/21 05:53:56;;;;;;;14.32;6.82;;;;;;;10.38;66.15;97834.25;10168906;29;20165;-77
2023/03/21 05:59:18;;;;;;;10.07;6.75;;;;;;;10.86;64.97;97836.13;10180186;29;20051;-77
2023/03/21 06:04:43;;;;;;;9.63;6.70;;;;;;;11.71;63.81;97833.34;10187812;29;20502;-77
2023/03/21 06:10:38;;;;;;;12.10;6.90;;;;;;;11.92;62.46;97837.47;10208668;29;20055;-79
2023/03/21 06:16:02;;;;;;;10.05;6.55;;;;;;;12.06;61.31;97838.34;10188935;29;20040;-77
2023/03/21 06:21:27;;;;;;;10.40;6.07;;;;;;;12.28;61.63;97839.03;10188022;29;20075;-77
2023/03/21 06:26:48;;;;;;;11.13;6.47;;;;;;;12.56;60.87;97857.59;10202340;29;20050;-78
2023/03/21 06:32:37;;;;;;;10.18;6.50;;;;;;;12.99;59.62;97853.81;10200648;29;20059;-78
2023/03/21 06:38:07;;;;;;;10.48;6.38;;;;;;;13.26;58.69;97851.28;10190399;29;20051;-77
2023/03/21 06:43:30;;;;;;;8.50;6.13;;;;;;;13.52;58.47;97860.50;10189325;29;20051;-77
2023/03/21 06:48:51;;;;;;;7.93;5.82;;;;;;;13.77;57.54;97859.81;10149862;29;20225;-77
2023/03/21 06:54:17;;;;;;;8.75;6.22;;;;;;;14.07;57.30;97871.28;10161565;29;20402;-76
2023/03/21 06:59:55;;;;;;;11.60;6.47;;;;;;;14.07;56.43;97865.66;10163764;29;20044;-76
2023/03/21 07:05:51;;;;;;;7.90;5.20;;;;;;;14.37;55.23;97881.38;10160785;29;20122;-77
2023/03/21 07:11:22;;;;;;;10.60;5.88;;;;;;;14.67;54.36;97864.72;10160436;29;20072;-77
2023/03/21 07:16:44;;;;;;;9.60;5.90;;;;;;;18.11;54.45;97861.78;10155124;29;20084;-78
2023/03/21 07:22:06;;;;;;;6.97;4.72;;;;;;;22.67;46.04;97867.44;10149787;29;20068;-78
2023/03/21 07:27:26;;;;;;;8.68;4.90;;;;;;;21.05;44.46;97873.28;10148878;29;20068;-79
2023/03/21 07:32:49;;;;;;;7.60;4.72;;;;;;;19.60;44.95;97868.06;10150678;29;20436;-78
2023/03/21 07:38:10;;;;;;;8.18;5.40;;;;;;;18.54;45.63;97875.50;10162430;29;20075;-78
2023/03/21 07:43:31;;;;;;;10.65;5.20;;;;;;;18.30;45.64;97877.38;10148500;29;20467;-79
2023/03/21 07:48:52;;;;;;;6.82;4.38;;;;;;;18.67;44.87;97871.06;10149931;29;20167;-78
2023/03/21 07:54:21;;;;;;;9.90;5.05;;;;;;;18.40;44.27;97871.38;10163318;29;20450;-78
2023/03/21 07:59:42;;;;;;;7.88;4.90;;;;;;;17.91;43.35;97863.81;10175434;29;20067;-80
2023/03/21 08:05:04;;;;;;;8.30;4.60;;;;;;;17.80;43.42;97870.41;10146329;29;20048;-79
2023/03/21 08:10:25;;;;;;;9.73;4.25;;;;;;;18.30;43.27;97871.72;10144599;29;20068;-78
2023/03/21 08:15:46;;;;;;;9.60;4.10;;;;;;;19.92;41.89;97873.34;10129276;29;20089;-78
2023/03/21 08:21:07;;;;;;;5.75;4.07;;;;;;;20.34;39.06;97871.13;10143916;29;20514;-79
2023/03/21 08:26:30;;;;;;;7.13;3.87;;;;;;;21.25;38.89;97864.63;10157403;29;20064;-77
2023/03/21 08:31:51;;;;;;;6.40;3.93;;;;;;;22.60;35.31;97860.19;10108235;29;20048;-78
2023/03/21 08:37:12;;;;;;;6.13;3.88;;;;;;;25.15;36.24;97864.56;10108028;29;20512;-78
2023/03/21 08:42:33;;;;;;;3.65;2.40;;;;;;;34.50;25.67;97867.75;10121263;29;20056;-80
2023/03/21 08:47:55;;;;;;;5.55;2.80;;;;;;;34.38;24.39;97872.41;10126783;29;20132;-77
2023/03/21 08:53:16;;;;;;;3.35;2.17;;;;;;;36.01;18.90;97864.84;10108159;29;20127;-80
2023/03/21 08:58:37;;;;;;;3.60;1.58;;;;;;;37.99;17.94;97863.53;10107920;29;20491;-80
2023/03/21 09:03:58;;;;;;;3.00;1.35;;;;;;;41.19;15.49;97858.72;10107832;29;20076;-84
2023/03/21 09:09:19;;;;;;;1.70;1.15;;;;;;;43.78;13.37;97860.38;10113883;29;20040;-84
2023/03/21 09:14:40;;;;;;;2.10;1.00;;;;;;;43.70;12.01;97868.16;10114441;29;20077;-84
2023/03/21 09:20:10;;;;;;;3.13;0.80;;;;;;;43.60;11.44;97865.19;10136860;29;20036;-84
2023/03/21 09:25:31;;;;;;;1.88;0.70;;;;;;;46.46;9.63;97859.19;10155471;29;20415;-84
2023/03/21 09:30:54;;;;;;;1.55;0.63;;;;;;;49.23;7.84;97859.50;10137048;29;20077;-84
2023/03/21 09:36:17;;;;;;;1.60;0.40;;;;;;;48.11;7.53;97846.06;10152072;29;20380;-81
2023/03/21 09:41:44;;;;;;;3.00;0.60;;;;;;;44.76;7.99;97852.31;10165380;29;20056;-80
2023/03/21 09:47:21;;;;;;;1.80;0.65;;;;;;;44.18;7.52;97845.25;10202525;29;20502;-80
2023/03/21 09:52:46;;;;;;;3.30;0.60;;;;;;;36.82;10.30;97840.31;10180663;29;20059;-79
2023/03/21 09:58:35;;;;;;;1.48;0.88;;;;;;;33.39;14.03;97840.69;10199660;28;20035;-79
2023/03/21 10:03:59;;;;;;;2.40;0.87;;;;;;;36.07;13.27;97832.69;10230211;28;20537;-79
2023/03/21 10:09:22;;;;;;;3.67;0.90;;;;;;;39.64;10.72;97833.69;10217530;28;20054;-79
2023/03/21 10:14:44;;;;;;;1.27;0.80;;;;;;;36.04;11.70;97827.72;10180088;29;20729;-79
2023/03/21 10:20:20;;;;;;;2.80;1.10;;;;;;;31.92;14.23;97824.66;10177048;29;20051;-80
2023/03/21 10:25:43;;;;;;;3.55;1.33;;;;;;;30.94;15.08;97811.59;10187615;29;20102;-79
2023/03/21 10:31:06;;;;;;;2.35;1.02;;;;;;;29.46;16.88;97808.59;10220677;28;20047;-79
2023/03/21 10:36:29;;;;;;;4.10;1.58;;;;;;;35.60;15.26;97806.63;10205743;28;20165;-81
2023/03/21 10:41:50;;;;;;;1.63;0.90;;;;;;;38.10;12.81;97800.44;10159197;28;20601;-81
2023/03/21 10:47:10;;;;;;;2.00;1.00;;;;;;;35.91;13.39;97794.78;10241866;28;20047;-81
2023/03/21 10:52:32;;;;;;;5.25;0.98;;;;;;;34.96;15.06;97799.13;10215113;28;20395;-81
2023/03/21 10:58:17;;;;;;;1.70;0.90;;;;;;;41.58;11.08;97803.19;10153893;29;20468;-81
2023/03/21 11:03:42;;;;;;;2.83;1.30;;;;;;;43.30;8.98;97803.88;10179767;29;20040;-81
2023/03/21 11:09:23;;;;;;;3.05;1.02;;;;;;;37.94;11.13;97790.19;10191420;28;20052;-80
2023/03/21 11:14:46;;;;;;;1.95;1.27;;;;;;;33.14;12.98;97788.44;10227800;28;20039;-78
2023/03/21 11:20:11;;;;;;;2.33;1.00;;;;;;;29.87;15.45;97782.41;10207384;28;20047;-80
2023/03/21 11:25:39;;;;;;;1.85;0.77;;;;;;;29.30;16.97;97774.91;10174828;29;20122;-79
2023/03/21 11:31:02;;;;;;;2.75;0.90;;;;;;;27.80;17.32;97766.75;10187080;29;20050;-80
2023/03/21 11:36:22;;;;;;;2.55;0.90;;;;;;;26.47;19.05;97760.66;10187373;29;20059;-79
2023/03/21 11:41:46;;;;;;;3.47;0.73;;;;;;;26.58;19.84;97741.41;10200519;29;20462;-80
2023/03/21 11:47:08;;;;;;;2.10;1.02;;;;;;;26.55;20.13;97742.81;10171322;29;20510;-79
2023/03/21 11:52:34;;;;;;;1.52;0.73;;;;;;;26.94;20.56;97737.94;10157976;29;20150;-80
2023/03/21 11:58:33;;;;;;;1.55;0.77;;;;;;;26.57;21.86;97728.50;10185095;29;20402;-79
2023/03/21 12:04:33;;;;;;;1.42;0.68;;;;;;;26.85;21.22;97715.72;10193702;29;20063;-80
2023/03/21 12:10:08;;;;;;;1.45;0.85;;;;;;;26.67;21.33;97719.25;10212201;29;20521;-79
2023/03/21 12:15:37;;;;;;;2.03;0.90;;;;;;;26.56;21.67;97704.19;10187607;29;20490;-79
2023/03/21 12:21:18;;;;;;;2.60;1.00;;;;;;;25.26;22.70;97701.16;10185276;29;20072;-79
2023/03/21 12:26:51;;;;;;;2.83;1.20;;;;;;;25.20;23.07;97686.13;10183555;29;20051;-79
2023/03/21 12:32:40;;;;;;;2.70;1.10;;;;;;;24.61;23.70;97686.25;10196490;29;20451;-80
2023/03/21 12:38:04;;;;;;;4.00;1.73;;;;;;;24.28;24.79;97682.25;10194931;29;20483;-79
2023/03/21 12:43:44;;;;;;;2.33;1.30;;;;;;;23.43;24.94;97679.59;10203522;29;20043;-79
2023/03/21 12:49:33;;;;;;;2.60;1.40;;;;;;;23.07;27.12;97670.47;10216983;29;20052;-80
2023/03/21 12:55:12;;;;;;;2.55;1.33;;;;;;;22.67;26.79;97656.19;10188407;29;20478;-77
2023/03/21 13:01:00;;;;;;;2.97;1.30;;;;;;;23.13;26.93;97648.50;10208221;29;20090;-78
2023/03/21 13:06:21;;;;;;;1.40;0.82;;;;;;;23.33;26.45;97631.03;10209111;29;20055;-76
2023/03/21 13:11:42;;;;;;;1.92;1.00;;;;;;;23.13;26.36;97631.41;10194704;29;20047;-81
2023/03/21 13:17:10;;;;;;;4.07;1.27;;;;;;;22.90;26.70;97631.75;10218730;29;20063;-80
2023/03/21 13:22:31;;;;;;;2.85;1.17;;;;;;;23.11;27.26;97616.44;10191287;29;20106;-80
2023/03/21 13:28:02;;;;;;;1.88;1.05;;;;;;;23.61;27.21;97619.34;10186497;29;20047;-80
2023/03/21 13:33:28;;;;;;;2.20;0.98;;;;;;;23.52;27.09;97617.78;10212434;29;20474;-79
2023/03/21 13:38:50;;;;;;;2.22;0.90;;;;;;;22.77;27.53;97622.94;10163718;29;20479;-78
2023/03/21 13:44:14;;;;;;;2.53;1.10;;;;;;;22.78;28.34;97613.03;10176333;29;20483;-77
2023/03/21 13:49:36;;;;;;;2.10;0.90;;;;;;;23.10;27.93;97607.19;10216663;29;20102;-78
2023/03/21 13:54:56;;;;;;;3.72;1.20;;;;;;;23.09;27.74;97607.88;10175430;29;20043;-79
2023/03/21 14:00:32;;;;;;;5.43;1.40;;;;;;;22.39;28.70;97605.19;10175762;29;20051;-78
2023/03/21 14:05:53;;;;;;;3.05;1.33;;;;;;;22.18;29.09;97601.22;10184702;29;20063;-79
2023/03/21 14:11:17;;;;;;;2.95;1.88;;;;;;;21.72;29.71;97604.56;10228461;29;20545;-79
2023/03/21 14:16:38;;;;;;;4.25;1.80;;;;;;;21.11;30.40;97600.28;10228028;28;20076;-79
2023/03/21 14:21:59;;;;;;;3.05;1.63;;;;;;;20.78;30.73;97588.16;10227739;28;20497;-79
2023/03/21 14:27:20;;;;;;;2.78;1.70;;;;;;;20.69;31.59;97588.63;10227498;29;20054;-79
2023/03/21 14:32:41;;;;;;;4.25;1.67;;;;;;;20.48;31.90;97588.09;10219373;29;20461;-80
2023/03/21 14:38:06;;;;;;;5.88;1.63;;;;;;;20.15;31.89;97586.47;10189700;29;20103;-79
2023/03/21 14:43:27;;;;;;;3.25;1.42;;;;;;;20.11;32.27;97585.66;10171550;29;20048;-77
2023/03/21 14:48:48;;;;;;;5.38;1.63;;;;;;;20.00;32.63;97584.66;10200588;29;20079;-79
2023/03/21 14:54:11;;;;;;;4.22;1.80;;;;;;;19.89;32.81;97580.09;10195475;29;20078;-76
2023/03/21 14:59:32;;;;;;;;;;;;;;;19.90;34.14;97575.88;10156921;29;20503;-79
2023/03/21 15:04:55;;;;;;;3.75;2.00;;;;;;;19.70;33.26;97564.69;10199539;29;19971;-77
2023/03/21 15:10:17;;;;;;;2.95;1.55;;;;;;;19.61;33.67;97568.66;10200102;29;20046;-79
2023/03/21 15:15:38;;;;;;;3.08;1.58;;;;;;;19.57;33.83;97560.75;10182807;29;20055;-84
2023/03/21 15:21:02;;;;;;;2.72;1.40;;;;;;;19.40;34.79;97558.84;10165255;29;20071;-83
2023/03/21 15:26:23;;;;;;;3.50;1.60;;;;;;;19.11;34.59;97557.97;10148828;29;20055;-84
2023/03/21 15:31:46;;;;;;;4.90;1.77;;;;;;;19.00;35.17;97546.97;10165966;29;20123;-83
2023/03/21 15:37:07;;;;;;;4.23;1.77;;;;;;;19.00;35.24;97547.69;10169845;29;20058;-81
2023/03/21 15:42:33;;;;;;;6.68;2.00;;;;;;;18.92;35.49;97550.28;10173247;29;20043;-80
2023/03/21 15:48:16;;;;;;;2.90;1.42;;;;;;;18.87;35.72;97543.78;10173812;29;20055;-83
2023/03/21 15:53:38;;;;;;;3.92;1.55;;;;;;;18.88;35.72;97553.69;10174685;29;20071;-84
2023/03/21 15:59:01;;;;;;;4.10;1.27;;;;;;;18.67;36.27;97551.59;10186282;29;20071;-81
2023/03/21 16:04:23;;;;;;;3.10;1.65;;;;;;;18.52;36.31;97549.66;10185209;29;20043;-77
2023/03/21 16:09:45;;;;;;;5.57;1.63;;;;;;;18.30;36.51;97544.69;10187051;29;20047;-78
2023/03/21 16:15:06;;;;;;;4.13;1.90;;;;;;;18.07;36.95;97548.13;10187990;29;20071;-78
2023/03/21 16:20:31;;;;;;;6.18;1.80;;;;;;;17.82;37.34;97546.53;10207991;29;20466;-77
2023/03/21 16:25:56;;;;;;;9.38;1.65;;;;;;;17.63;38.10;97544.41;10194627;29;20170;-77
2023/03/21 16:31:22;;;;;;;3.47;1.95;;;;;;;17.51;38.11;97546.78;10195418;29;20055;-77
2023/03/21 16:36:42;;;;;;;4.38;1.95;;;;;;;17.32;39.41;97556.66;10180826;29;20051;-77
2023/03/21 16:42:05;;;;;;;3.90;1.95;;;;;;;17.12;39.34;97553.78;10207351;29;20047;-76
2023/03/21 16:47:25;;;;;;;5.20;1.77;;;;;;;16.96;39.61;97564.41;10195793;29;20052;-76
2023/03/21 16:52:47;;;;;;;4.78;2.13;;;;;;;16.75;39.89;97562.88;10183288;29;20044;-77
2023/03/21 16:58:35;;;;;;;5.80;2.10;;;;;;;16.64;40.55;97556.09;10207987;29;20055;-77
2023/03/21 17:04:24;;;;;;;6.53;2.20;;;;;;;16.56;40.92;97558.56;10220982;29;20047;-77
2023/03/21 17:10:19;;;;;;;4.28;2.17;;;;;;;16.44;41.90;97561.63;10204206;29;20056;-78
2023/03/21 17:33:26;;;;;;;5.43;2.78;;;;;;;15.78;43.13;97560.19;10241897;29;20118;-77
2023/03/21 17:39:27;;;;;;;5.45;2.85;;;;;;;15.67;44.83;97556.19;10227198;29;20043;-79
2023/03/21 17:45:49;;;;;;;6.93;2.78;;;;;;;15.44;45.77;97564.94;10251855;29;20059;-78
2023/03/21 17:59:32;;;;;;;6.85;2.85;;;;;;;15.15;45.29;97566.47;10249524;29;20048;-79
2023/03/21 18:04:53;;;;;;;6.15;3.00;;;;;;;15.10;46.04;97559.22;10201656;29;20430;-77
2023/03/21 18:10:42;;;;;;;5.40;2.50;;;;;;;15.06;46.22;97564.66;10210744;29;20055;-78
2023/03/21 18:25:12;;;;;;;6.07;2.80;;;;;;;15.15;47.01;97568.53;10251550;29;20057;-79
2023/03/21 18:55:42;;;;;;;5.88;3.80;;;;;;;15.06;47.46;97570.28;10185115;29;20044;-76
2023/03/21 19:01:35;;;;;;;8.73;4.22;;;;;;;15.00;47.75;97558.72;10154519;29;20048;-75
2023/03/21 19:06:57;;;;;;;7.65;4.00;;;;;;;14.91;47.76;97565.31;10147023;29;20073;-75
2023/03/21 19:12:18;;;;;;;8.77;4.00;;;;;;;14.98;47.88;97557.91;10158702;29;20048;-76
2023/03/21 19:17:39;;;;;;;7.93;4.10;;;;;;;14.96;47.57;97575.41;10162451;29;20040;-75
2023/03/21 19:23:20;;;;;;;8.13;4.28;;;;;;;14.96;47.97;97566.22;10154743;29;20052;-75
2023/03/21 19:28:41;;;;;;;10.45;4.57;;;;;;;14.95;47.67;97561.97;10147336;29;20052;-75
2023/03/21 19:34:02;;;;;;;6.00;3.88;;;;;;;14.93;47.80;97556.25;10142050;29;20047;-78
2023/03/21 19:39:23;;;;;;;9.38;4.50;;;;;;;14.87;47.77;97551.09;10153812;29;20423;-75
2023/03/21 19:44:45;;;;;;;8.40;3.83;;;;;;;14.89;48.08;97545.56;10146096;29;20056;-75
2023/03/21 19:50:07;;;;;;;8.77;4.05;;;;;;;14.88;48.18;97558.16;10163964;29;20506;-76
2023/03/21 19:55:51;;;;;;;12.55;6.50;;;;;;;14.81;48.09;97545.16;10189421;29;20044;-75
2023/03/21 20:01:19;;;;;;;13.50;6.93;;;;;;;14.83;48.46;97548.78;10185454;29;20043;-75
2023/03/21 20:06:40;;;;;;;14.43;7.40;;;;;;;14.80;48.52;97543.72;10183366;29;20052;-75
2023/03/21 20:12:33;;;;;;;14.82;7.93;;;;;;;14.87;48.32;97543.38;10193647;29;20056;-75
2023/03/21 20:18:00;;;;;;;11.80;6.88;;;;;;;14.88;48.40;97550.47;10184069;29;20047;-75
2023/03/21 20:23:21;;;;;;;17.13;6.68;;;;;;;14.89;48.40;97556.81;10195097;29;20467;-75
2023/03/21 20:28:44;;;;;;;11.40;6.05;;;;;;;14.88;48.58;97558.88;10195490;29;20039;-75
2023/03/21 20:34:23;;;;;;;13.35;6.18;;;;;;;14.87;48.91;97554.63;10184430;29;20455;-75
2023/03/21 20:39:44;;;;;;;14.05;6.00;;;;;;;14.85;48.87;97567.84;10177177;29;20051;-75
2023/03/21 20:45:07;;;;;;;12.43;5.68;;;;;;;14.87;48.66;97562.31;10177032;29;20502;-75
2023/03/21 20:50:30;;;;;;;7.23;5.13;;;;;;;14.89;48.87;97556.81;10202679;29;20047;-76
2023/03/21 20:55:53;;;;;;;10.25;5.18;;;;;;;14.84;48.84;97567.09;10176699;29;20295;-76
2023/03/21 21:01:15;;;;;;;9.63;5.78;;;;;;;14.79;49.08;97557.03;10192507;29;20043;-76
2023/03/21 21:07:05;;;;;;;9.40;5.07;;;;;;;14.70;48.99;97552.38;10193593;29;20486;-75
2023/03/21 21:12:29;;;;;;;8.90;5.50;;;;;;;14.60;49.10;97555.44;10182228;29;20475;-76
2023/03/21 21:17:51;;;;;;;11.52;5.07;;;;;;;14.47;49.38;97553.38;10182914;29;20055;-76
2023/03/21 21:23:28;;;;;;;9.15;5.20;;;;;;;14.38;49.64;97557.13;10210761;29;20071;-76
2023/03/21 21:28:50;;;;;;;11.32;4.93;;;;;;;14.34;49.42;97559.72;10181100;29;20505;-76
2023/03/21 21:34:12;;;;;;;10.57;4.13;;;;;;;14.29;49.43;97558.06;10181541;29;20502;-76
2023/03/21 21:39:36;;;;;;;7.75;3.70;;;;;;;14.28;49.50;97553.78;10195664;29;20497;-76
2023/03/21 21:44:57;;;;;;;7.68;3.35;;;;;;;14.20;49.39;97554.13;10181376;29;20068;-76
2023/03/21 21:50:18;;;;;;;7.95;3.45;;;;;;;14.19;49.25;97551.97;10194691;29;20502;-76
2023/03/21 21:55:41;;;;;;;5.95;3.03;;;;;;;14.16;49.35;97553.91;10194786;29;20044;-77
2023/03/21 22:01:02;;;;;;;6.65;3.40;;;;;;;14.16;49.19;97544.78;10181416;29;20066;-76
2023/03/21 22:06:23;;;;;;;7.53;3.22;;;;;;;14.16;49.30;97544.78;10194454;29;20043;-76
2023/03/21 22:11:44;;;;;;;8.75;3.22;;;;;;;14.19;49.11;97541.44;10182780;29;20119;-76
2023/03/21 22:17:06;;;;;;;11.00;3.58;;;;;;;14.19;49.01;97540.72;10194200;29;20091;-76
2023/03/21 22:22:27;;;;;;;8.88;3.72;;;;;;;14.20;48.93;97542.19;10220526;29;20079;-76
2023/03/21 22:27:47;;;;;;;9.20;3.72;;;;;;;14.21;48.71;97538.75;10182007;29;20110;-76
2023/03/21 22:33:08;;;;;;;6.93;3.60;;;;;;;14.20;48.69;97544.97;10180644;29;20122;-76
2023/03/21 22:38:33;;;;;;;7.88;3.42;;;;;;;14.19;48.84;97552.69;10195550;29;20048;-76
2023/03/21 22:43:54;;;;;;;7.10;3.25;;;;;;;14.18;48.76;97544.88;10182082;29;20063;-76
2023/03/21 22:49:15;;;;;;;7.97;3.03;;;;;;;14.17;48.70;97549.75;10194217;29;20063;-76
2023/03/21 22:55:04;;;;;;;5.43;2.67;;;;;;;14.17;48.70;97549.03;10194133;29;20056;-76
2023/03/21 23:00:25;;;;;;;7.38;3.35;;;;;;;14.16;48.71;97551.09;10178005;29;20107;-76
2023/03/21 23:05:46;;;;;;;8.13;3.28;;;;;;;14.13;48.51;97554.44;10178042;29;20067;-75
2023/03/21 23:11:07;;;;;;;7.97;3.22;;;;;;;14.06;48.79;97544.25;10177948;29;20048;-75
2023/03/21 23:16:28;;;;;;;6.63;3.80;;;;;;;14.00;48.78;97551.03;10190479;29;20094;-75
2023/03/21 23:21:49;;;;;;;7.72;3.78;;;;;;;13.95;49.00;97559.84;10177300;29;20554;-76
2023/03/21 23:27:10;;;;;;;7.30;3.65;;;;;;;13.91;48.86;97563.19;10176007;29;20067;-75
2023/03/21 23:32:30;;;;;;;7.85;3.63;;;;;;;13.88;49.15;97569.31;10176193;29;20119;-75
2023/03/21 23:37:51;;;;;;;8.00;3.60;;;;;;;13.88;49.29;97572.09;10189180;29;20078;-76
2023/03/21 23:43:12;;;;;;;7.78;3.95;;;;;;;13.86;49.03;97567.13;10176102;29;20048;-75
2023/03/21 23:48:33;;;;;;;6.13;3.72;;;;;;;13.80;49.09;97564.03;10176035;29;20051;-75
2023/03/21 23:53:55;;;;;;;8.32;3.78;;;;;;;13.72;49.39;97569.94;10175613;29;20466;-76
2023/03/21 23:59:16;;;;;;;8.55;3.55;;;;;;;13.67;49.64;97567.53;10189165;29;20074;-75
